createdAt,value
2018-06-09T00:00:54.649Z,3.40
2018-06-09T00:03:24.229Z,3.13
2018-06-09T00:05:53.689Z,2.47
2018-06-09T00:08:23.444Z,3.70
2018-06-09T00:10:52.771Z,2.57
2018-06-09T00:13:21.992Z,3.53
2018-06-09T00:15:51.827Z,2.97
2018-06-09T00:18:21.040Z,2.70
2018-06-09T00:20:50.341Z,2.90
2018-06-09T00:23:19.672Z,2.80
2018-06-09T00:25:48.827Z,2.70
2018-06-09T00:28:18.004Z,3.07
2018-06-09T00:30:47.794Z,3.07
2018-06-09T00:33:16.987Z,3.07
2018-06-09T00:35:46.340Z,2.10
2018-06-09T00:38:15.567Z,2.80
2018-06-09T00:40:44.760Z,2.70
2018-06-09T00:43:14.072Z,2.63
2018-06-09T00:45:43.341Z,2.73
2018-06-09T00:48:12.734Z,2.80
2018-06-09T00:50:42.006Z,2.87
2018-06-09T00:53:11.539Z,2.67
2018-06-09T00:55:40.811Z,2.97
2018-06-09T00:58:10.099Z,2.60
2018-06-09T01:00:39.368Z,3.27
2018-06-09T01:03:08.699Z,3.47
2018-06-09T01:05:38.044Z,2.77
2018-06-09T01:08:07.522Z,3.20
2018-06-09T01:10:36.881Z,2.73
2018-06-09T01:13:06.416Z,2.30
2018-06-09T01:15:35.989Z,2.60
2018-06-09T01:18:05.399Z,2.90
2018-06-09T01:20:35.067Z,2.87
2018-06-09T01:23:04.729Z,2.73
2018-06-09T01:25:34.327Z,3.23
2018-06-09T01:28:04.032Z,2.90
2018-06-09T01:30:33.982Z,2.30
2018-06-09T01:33:03.581Z,2.37
2018-06-09T01:35:33.427Z,2.57
2018-06-09T01:38:05.021Z,3.60
2018-06-09T01:40:34.797Z,2.80
2018-06-09T01:43:04.132Z,2.20
2018-06-09T01:45:34.120Z,2.27
2018-06-09T01:48:03.745Z,2.50
2018-06-09T01:50:33.289Z,1.83
2018-06-09T01:53:02.842Z,2.43
2018-06-09T01:55:32.313Z,2.20
2018-06-09T01:58:01.742Z,1.90
2018-06-09T02:00:31.552Z,2.53
2018-06-09T02:03:01.088Z,2.23
2018-06-09T02:05:30.615Z,2.20
2018-06-09T02:08:01.010Z,2.50
2018-06-09T02:10:31.055Z,1.80
2018-06-09T02:13:00.583Z,2.10
2018-06-09T02:15:31.019Z,2.27
2018-06-09T02:18:00.854Z,1.77
2018-06-09T02:20:30.644Z,2.27
2018-06-09T02:23:00.249Z,2.20
2018-06-09T02:25:29.826Z,2.20
2018-06-09T02:27:59.712Z,2.50
2018-06-09T02:30:29.678Z,2.20
2018-06-09T02:32:59.241Z,2.20
2018-06-09T02:35:29.013Z,2.37
2018-06-09T02:37:59.481Z,1.93
2018-06-09T02:40:28.882Z,2.17
2018-06-09T02:42:58.739Z,2.70
2018-06-09T02:45:28.710Z,2.10
2018-06-09T02:47:58.345Z,2.70
2018-06-09T02:50:27.732Z,2.20
2018-06-09T02:52:57.273Z,2.83
2018-06-09T02:55:26.953Z,2.10
2018-06-09T02:57:56.405Z,2.30
2018-06-09T03:00:28.047Z,2.20
2018-06-09T03:02:57.443Z,2.73
2018-06-09T03:05:26.845Z,3.03
2018-06-09T03:07:56.294Z,2.97
2018-06-09T03:10:25.661Z,2.47
2018-06-09T03:12:55.098Z,3.30
2018-06-09T03:15:24.777Z,3.20
2018-06-09T03:17:54.173Z,2.70
2018-06-09T03:20:23.546Z,2.93
2018-06-09T03:22:53.503Z,2.73
2018-06-09T03:25:22.762Z,2.50
2018-06-09T03:27:52.164Z,2.37
2018-06-09T03:30:21.618Z,2.43
2018-06-09T03:32:50.963Z,2.40
2018-06-09T03:35:20.158Z,2.70
2018-06-09T03:37:49.912Z,2.53
2018-06-09T03:40:19.107Z,3.03
2018-06-09T03:42:48.405Z,2.90
2018-06-09T03:45:18.029Z,2.80
2018-06-09T03:47:47.248Z,2.37
2018-06-09T03:50:17.161Z,2.60
2018-06-09T03:52:46.797Z,3.07
2018-06-09T03:55:15.967Z,2.43
2018-06-09T03:57:45.263Z,2.50
2018-06-09T04:00:14.487Z,2.40
2018-06-09T04:02:43.806Z,2.33
2018-06-09T04:05:12.950Z,2.37
2018-06-09T04:07:42.369Z,2.40
2018-06-09T04:10:11.623Z,2.73
2018-06-09T04:12:41.004Z,2.17
2018-06-09T04:15:10.201Z,2.20
2018-06-09T04:17:39.424Z,2.23
2018-06-09T04:20:08.610Z,3.00
2018-06-09T04:22:37.859Z,3.27
2018-06-09T04:25:07.150Z,2.10
2018-06-09T04:27:36.370Z,2.17
2018-06-09T04:30:05.697Z,2.60
2018-06-09T04:32:35.002Z,1.83
2018-06-09T04:35:04.377Z,1.83
2018-06-09T04:37:34.243Z,1.50
2018-06-09T04:40:03.744Z,1.57
2018-06-09T04:42:33.674Z,1.77
2018-06-09T04:45:03.351Z,2.13
2018-06-09T04:47:32.982Z,2.00
2018-06-09T04:50:02.273Z,2.10
2018-06-09T04:52:32.693Z,2.20
2018-06-09T04:55:02.069Z,1.70
2018-06-09T04:57:31.660Z,2.37
2018-06-09T05:00:01.571Z,1.93
2018-06-09T05:02:30.944Z,2.70
2018-06-09T05:05:00.388Z,2.30
2018-06-09T05:07:30.422Z,2.83
2018-06-09T05:09:59.822Z,2.10
2018-06-09T05:12:29.356Z,2.17
2018-06-09T05:14:59.182Z,2.30
2018-06-09T05:17:28.719Z,2.60
2018-06-09T05:19:58.839Z,1.80
2018-06-09T05:22:29.482Z,3.30
2018-06-09T05:24:58.946Z,2.27
2018-06-09T05:27:28.497Z,2.03
2018-06-09T05:29:58.323Z,1.93
2018-06-09T05:32:27.650Z,3.40
2018-06-09T05:34:56.977Z,2.13
2018-06-09T05:37:26.392Z,2.57
2018-06-09T05:39:55.771Z,2.07
2018-06-09T05:42:25.304Z,1.90
2018-06-09T05:44:54.885Z,1.47
2018-06-09T05:47:24.386Z,2.13
2018-06-09T05:49:54.024Z,3.20
2018-06-09T05:52:23.853Z,2.70
2018-06-09T05:54:53.299Z,2.00
2018-06-09T05:57:22.747Z,3.60
2018-06-09T05:59:52.079Z,3.13
2018-06-09T06:02:21.459Z,2.80
2018-06-09T06:04:50.728Z,2.53
2018-06-09T06:07:20.020Z,3.00
2018-06-09T06:09:49.257Z,3.00
2018-06-09T06:12:18.607Z,2.40
2018-06-09T06:14:48.111Z,2.13
2018-06-09T06:17:17.819Z,2.33
2018-06-09T06:19:47.170Z,2.40
2018-06-09T06:22:16.449Z,2.30
2018-06-09T06:24:45.764Z,2.77
2018-06-09T06:27:15.044Z,2.90
2018-06-09T06:29:44.485Z,4.20
2018-06-09T06:32:13.863Z,1.77
2018-06-09T06:34:43.108Z,2.07
2018-06-09T06:37:12.711Z,3.17
2018-06-09T06:39:42.031Z,2.17
2018-06-09T06:42:11.276Z,4.20
2018-06-09T06:44:40.631Z,2.53
2018-06-09T06:47:10.042Z,2.93
2018-06-09T06:49:39.302Z,8.30
2018-06-09T06:52:08.629Z,2.70
2018-06-09T06:54:37.983Z,2.10
2018-06-09T06:57:07.348Z,2.33
2018-06-09T06:59:36.878Z,3.03
2018-06-09T07:02:06.264Z,3.30
2018-06-09T07:04:35.795Z,3.50
2018-06-09T07:07:05.511Z,3.20
2018-06-09T07:09:34.977Z,2.70
2018-06-09T07:12:04.425Z,2.53
2018-06-09T07:14:33.779Z,1.80
2018-06-09T07:17:03.859Z,2.30
2018-06-09T07:19:33.282Z,2.83
2018-06-09T07:22:02.956Z,2.10
2018-06-09T07:24:32.868Z,3.20
2018-06-09T07:27:02.420Z,3.20
2018-06-09T07:29:31.990Z,2.17
2018-06-09T07:32:01.710Z,3.17
2018-06-09T07:34:31.490Z,2.43
2018-06-09T07:37:01.726Z,2.20
2018-06-09T07:39:31.312Z,2.40
2018-06-09T07:42:01.479Z,2.00
2018-06-09T07:44:34.128Z,2.10
2018-06-09T07:47:04.062Z,2.53
2018-06-09T07:49:33.654Z,2.63
2018-06-09T07:52:03.608Z,2.80
2018-06-09T07:54:33.288Z,1.90
2018-06-09T07:57:02.928Z,2.57
2018-06-09T07:59:33.229Z,2.00
2018-06-09T08:02:02.703Z,1.90
2018-06-09T08:04:32.131Z,2.20
2018-06-09T08:07:01.627Z,2.50
2018-06-09T08:09:31.130Z,2.13
2018-06-09T08:12:01.141Z,2.90
2018-06-09T08:14:30.620Z,2.10
2018-06-09T08:17:00.432Z,2.17
2018-06-09T08:19:30.129Z,2.47
2018-06-09T08:22:00.098Z,2.10
2018-06-09T08:24:30.293Z,2.70
2018-06-09T08:27:00.514Z,2.37
2018-06-09T08:29:30.052Z,2.30
2018-06-09T08:32:00.267Z,2.67
2018-06-09T08:34:29.949Z,2.10
2018-06-09T08:36:59.928Z,2.00
2018-06-09T08:39:29.828Z,1.83
2018-06-09T08:42:00.374Z,2.10
2018-06-09T08:44:29.859Z,2.00
2018-06-09T08:47:00.359Z,2.60
2018-06-09T08:49:30.171Z,2.30
2018-06-09T08:51:59.983Z,2.60
2018-06-09T08:54:29.768Z,2.30
2018-06-09T08:56:59.495Z,2.30
2018-06-09T08:59:29.115Z,2.10
2018-06-09T09:01:58.529Z,3.27
2018-06-09T09:04:28.213Z,2.23
2018-06-09T09:06:58.042Z,1.90
2018-06-09T09:09:27.690Z,2.33
2018-06-09T09:11:57.816Z,3.10
2018-06-09T09:14:27.324Z,2.30
2018-06-09T09:16:56.853Z,2.77
2018-06-09T09:19:26.839Z,2.87
2018-06-09T09:21:56.737Z,2.80
2018-06-09T09:24:26.427Z,2.70
2018-06-09T09:26:56.571Z,2.90
2018-06-09T09:29:25.947Z,2.27
2018-06-09T09:31:55.455Z,2.30
2018-06-09T09:34:25.534Z,2.23
2018-06-09T09:36:55.302Z,2.43
2018-06-09T09:39:25.261Z,2.30
2018-06-09T09:41:55.384Z,2.60
2018-06-09T09:44:24.825Z,1.97
2018-06-09T09:46:54.228Z,2.13
2018-06-09T09:49:24.436Z,3.03
2018-06-09T09:51:54.053Z,2.80
2018-06-09T09:54:23.700Z,2.27
2018-06-09T09:56:53.159Z,2.60
2018-06-09T09:59:22.777Z,2.03
2018-06-09T10:01:52.141Z,2.27
2018-06-09T10:04:21.495Z,2.00
2018-06-09T10:06:50.880Z,1.93
2018-06-09T10:09:20.437Z,1.87
2018-06-09T10:11:50.337Z,3.07
2018-06-09T10:14:21.465Z,2.30
2018-06-09T10:16:51.074Z,1.67
2018-06-09T10:19:20.892Z,2.10
2018-06-09T10:21:50.188Z,2.13
2018-06-09T10:24:19.460Z,2.80
2018-06-09T10:26:48.791Z,2.50
2018-06-09T10:29:23.872Z,2.93
2018-06-09T10:31:55.201Z,2.30
2018-06-09T10:34:25.341Z,2.40
2018-06-09T10:36:55.144Z,2.23
2018-06-09T10:39:24.741Z,2.47
2018-06-09T10:41:54.463Z,2.00
2018-06-09T10:44:25.148Z,2.00
2018-06-09T10:46:54.639Z,3.00
2018-06-09T10:49:24.391Z,2.13
2018-06-09T10:51:53.976Z,3.27
2018-06-09T10:54:24.554Z,2.77
2018-06-09T10:56:54.212Z,2.83
2018-06-09T10:59:24.155Z,2.20
2018-06-09T11:01:53.693Z,2.67
2018-06-09T11:04:23.606Z,2.10
2018-06-09T11:06:53.352Z,2.30
2018-06-09T11:09:22.764Z,2.20
2018-06-09T11:11:53.191Z,3.03
2018-06-09T11:14:22.501Z,2.40
2018-06-09T11:16:53.065Z,2.53
2018-06-09T11:19:22.447Z,3.10
2018-06-09T11:21:51.783Z,3.30
2018-06-09T11:24:21.126Z,2.63
2018-06-09T11:26:50.521Z,3.13
2018-06-09T11:29:19.913Z,2.60
2018-06-09T11:31:49.337Z,2.80
2018-06-09T11:34:18.634Z,2.50
2018-06-09T11:36:48.036Z,2.80
2018-06-09T11:39:17.379Z,2.60
2018-06-09T11:41:47.052Z,2.57
2018-06-09T11:44:16.434Z,2.70
2018-06-09T11:46:45.746Z,2.50
2018-06-09T11:49:15.171Z,2.47
2018-06-09T11:51:44.502Z,2.83
2018-06-09T11:54:13.774Z,2.50
2018-06-09T11:56:43.792Z,2.50
2018-06-09T11:59:13.077Z,2.60
2018-06-09T12:01:42.436Z,2.60
2018-06-09T12:04:11.898Z,2.23
2018-06-09T12:06:41.470Z,2.23
2018-06-09T12:09:10.829Z,2.73
2018-06-09T12:11:40.149Z,4.53
2018-06-09T12:14:09.442Z,3.03
2018-06-09T12:16:38.984Z,1.97
2018-06-09T12:19:08.498Z,2.80
2018-06-09T12:21:37.853Z,2.60
2018-06-09T12:24:07.211Z,3.10
2018-06-09T12:26:36.724Z,3.00
2018-06-09T12:29:06.025Z,2.50
2018-06-09T12:31:35.525Z,2.50
2018-06-09T12:34:05.549Z,3.23
2018-06-09T12:36:34.846Z,3.00
2018-06-09T12:39:05.821Z,2.80
2018-06-09T12:41:35.464Z,3.03
2018-06-09T12:44:04.823Z,3.03
2018-06-09T12:46:35.045Z,2.73
2018-06-09T12:49:05.423Z,2.90
2018-06-09T12:51:35.073Z,3.27
2018-06-09T12:54:04.891Z,2.27
2018-06-09T12:56:35.323Z,3.27
2018-06-09T12:59:04.880Z,2.63
2018-06-09T13:01:34.242Z,2.73
2018-06-09T13:04:03.799Z,3.97
2018-06-09T13:06:36.977Z,3.90
2018-06-09T13:09:11.627Z,4.37
2018-06-09T13:11:42.078Z,2.77
2018-06-09T13:14:12.367Z,3.10
2018-06-09T13:16:43.661Z,2.67
2018-06-09T13:19:16.705Z,3.20
2018-06-09T13:21:49.829Z,2.43
2018-06-09T13:24:19.584Z,3.37
2018-06-09T13:26:51.913Z,2.50
2018-06-09T13:29:21.666Z,5.43
2018-06-09T13:31:50.881Z,4.23
2018-06-09T13:34:20.085Z,2.90
2018-06-09T13:36:53.110Z,2.60
2018-06-09T13:39:22.789Z,2.27
2018-06-09T13:41:52.237Z,4.10
2018-06-09T13:44:21.600Z,2.97
2018-06-09T13:46:50.914Z,3.63
2018-06-09T13:49:21.533Z,2.37
2018-06-09T13:51:52.377Z,2.40
2018-06-09T13:54:22.263Z,2.20
2018-06-09T13:56:52.297Z,2.20
2018-06-09T13:59:23.001Z,7.90
2018-06-09T14:01:54.493Z,2.70
2018-06-09T14:04:24.676Z,2.10
2018-06-09T14:06:54.472Z,2.23
2018-06-09T14:09:24.413Z,2.27
2018-06-09T14:11:54.259Z,2.90
2018-06-09T14:14:24.305Z,2.70
2018-06-09T14:16:54.930Z,2.07
2018-06-09T14:19:26.860Z,2.90
2018-06-09T14:21:56.534Z,2.17
2018-06-09T14:24:27.608Z,2.87
2018-06-09T14:26:57.984Z,3.00
2018-06-09T14:29:27.448Z,2.60
2018-06-09T14:31:57.166Z,2.83
2018-06-09T14:34:26.824Z,2.80
2018-06-09T14:37:00.763Z,3.60
2018-06-09T14:39:30.757Z,2.80
2018-06-09T14:42:01.887Z,2.73
2018-06-09T14:44:31.459Z,3.33
2018-06-09T14:47:01.287Z,3.70
2018-06-09T14:49:31.499Z,3.30
2018-06-09T14:52:01.823Z,3.73
2018-06-09T14:54:31.749Z,3.63
2018-06-09T14:57:01.625Z,3.20
2018-06-09T14:59:31.942Z,4.27
2018-06-09T15:02:02.270Z,4.70
2018-06-09T15:04:31.984Z,3.97
2018-06-09T15:07:02.142Z,3.07
2018-06-09T15:09:32.204Z,4.40
2018-06-09T15:12:02.163Z,3.87
2018-06-09T15:14:31.912Z,3.00
2018-06-09T15:17:01.660Z,3.10
2018-06-09T15:19:31.115Z,3.70
2018-06-09T15:22:01.003Z,3.37
2018-06-09T15:24:30.510Z,2.87
2018-06-09T15:26:59.952Z,2.67
2018-06-09T15:29:29.659Z,3.33
2018-06-09T15:31:59.185Z,3.43
2018-06-09T15:34:28.872Z,3.33
2018-06-09T15:36:58.480Z,2.90
2018-06-09T15:39:29.361Z,4.17
2018-06-09T15:41:59.069Z,4.70
2018-06-09T15:44:28.736Z,3.43
2018-06-09T15:46:58.400Z,4.90
2018-06-09T15:49:28.686Z,3.93
2018-06-09T15:51:58.350Z,3.83
2018-06-09T15:54:28.378Z,3.37
2018-06-09T15:56:58.633Z,3.20
2018-06-09T15:59:28.045Z,3.30
2018-06-09T16:01:57.653Z,4.37
2018-06-09T16:04:27.159Z,3.70
2018-06-09T16:06:57.077Z,3.93
2018-06-09T16:09:26.755Z,3.20
2018-06-09T16:11:56.291Z,3.60
2018-06-09T16:14:26.752Z,3.73
2018-06-09T16:16:57.639Z,3.87
2018-06-09T16:19:28.100Z,4.10
2018-06-09T16:21:58.090Z,3.40
2018-06-09T16:24:28.425Z,3.47
2018-06-09T16:26:58.404Z,3.33
2018-06-09T16:29:27.921Z,2.90
2018-06-09T16:31:57.440Z,3.30
2018-06-09T16:34:27.420Z,3.80
2018-06-09T16:36:57.508Z,3.87
2018-06-09T16:39:27.764Z,3.90
2018-06-09T16:41:57.670Z,3.50
2018-06-09T16:44:27.363Z,3.50
2018-06-09T16:46:57.090Z,3.30
2018-06-09T16:49:27.100Z,3.40
2018-06-09T16:51:57.175Z,3.17
2018-06-09T16:54:27.253Z,3.57
2018-06-09T16:56:57.108Z,3.70
2018-06-09T16:59:26.645Z,3.93
2018-06-09T17:01:56.746Z,3.70
2018-06-09T17:04:28.693Z,3.40
2018-06-09T17:06:59.216Z,3.70
2018-06-09T17:09:29.296Z,3.63
2018-06-09T17:11:58.977Z,2.83
2018-06-09T17:14:29.085Z,4.67
2018-06-09T17:16:58.639Z,3.40
2018-06-09T17:19:28.241Z,4.10
2018-06-09T17:21:58.410Z,4.73
2018-06-09T17:24:28.112Z,4.37
2018-06-09T17:26:57.948Z,5.00
2018-06-09T17:29:27.837Z,3.27
2018-06-09T17:31:57.644Z,3.93
2018-06-09T17:34:27.313Z,3.63
2018-06-09T17:36:57.151Z,5.10
2018-06-09T17:39:27.045Z,5.20
2018-06-09T17:41:56.902Z,5.47
2018-06-09T17:44:26.813Z,6.10
2018-06-09T17:46:56.276Z,4.80
2018-06-09T17:49:25.928Z,7.23
2018-06-09T17:51:55.728Z,5.00
2018-06-09T17:54:26.754Z,4.77
2018-06-09T17:56:56.832Z,5.60
2018-06-09T17:59:26.411Z,4.77
2018-06-09T18:01:56.117Z,3.30
2018-06-09T18:04:26.907Z,5.30
2018-06-09T18:06:58.089Z,4.27
2018-06-09T18:09:28.041Z,4.10
2018-06-09T18:11:57.859Z,4.47
2018-06-09T18:14:28.046Z,5.13
2018-06-09T18:16:57.956Z,6.03
2018-06-09T18:19:27.635Z,5.67
2018-06-09T18:21:57.024Z,7.30
2018-06-09T18:24:26.537Z,5.23
2018-06-09T18:26:56.137Z,4.80
2018-06-09T18:29:25.648Z,6.47
2018-06-09T18:31:55.229Z,3.20
2018-06-09T18:34:25.155Z,3.10
2018-06-09T18:36:54.926Z,6.47
2018-06-09T18:39:25.146Z,4.90
2018-06-09T18:41:54.828Z,3.40
2018-06-09T18:44:24.318Z,4.03
2018-06-09T18:46:53.793Z,3.63
2018-06-09T18:49:23.105Z,4.03
2018-06-09T18:51:52.680Z,4.63
2018-06-09T18:54:22.365Z,7.20
2018-06-09T18:56:51.655Z,4.37
2018-06-09T18:59:20.909Z,4.67
2018-06-09T19:01:50.367Z,5.20
2018-06-09T19:04:19.672Z,4.80
2018-06-09T19:06:49.224Z,4.27
2018-06-09T19:09:18.531Z,5.20
2018-06-09T19:11:47.970Z,5.37
2018-06-09T19:14:17.280Z,4.70
2018-06-09T19:16:46.812Z,4.23
2018-06-09T19:19:16.102Z,4.70
2018-06-09T19:21:45.586Z,3.40
2018-06-09T19:24:14.912Z,3.57
2018-06-09T19:26:44.344Z,4.60
2018-06-09T19:29:13.977Z,5.60
2018-06-09T19:31:43.623Z,4.60
2018-06-09T19:34:13.130Z,5.37
2018-06-09T19:36:42.492Z,4.23
2018-06-09T19:39:11.795Z,4.20
2018-06-09T19:41:41.137Z,5.87
2018-06-09T19:44:10.605Z,5.90
2018-06-09T19:46:39.927Z,6.40
2018-06-09T19:49:09.232Z,4.87
2018-06-09T19:51:39.158Z,5.50
2018-06-09T19:54:08.539Z,5.83
2018-06-09T19:56:37.965Z,4.53
2018-06-09T19:59:07.828Z,4.40
2018-06-09T20:01:37.296Z,4.60
2018-06-09T20:04:06.604Z,5.17
2018-06-09T20:06:36.551Z,5.23
2018-06-09T20:09:08.015Z,5.60
2018-06-09T20:11:37.538Z,8.20
2018-06-09T20:14:07.498Z,6.80
2018-06-09T20:16:37.075Z,6.77
2018-06-09T20:19:06.809Z,5.10
2018-06-09T20:21:36.505Z,5.90
2018-06-09T20:24:06.633Z,6.60
2018-06-09T20:26:38.076Z,6.83
2018-06-09T20:29:08.247Z,6.03
2018-06-09T20:31:38.753Z,4.67
2018-06-09T20:34:08.547Z,4.33
2018-06-09T20:36:38.710Z,5.40
2018-06-09T20:39:08.382Z,6.60
2018-06-09T20:41:37.784Z,6.50
2018-06-09T20:44:07.375Z,6.33
2018-06-09T20:46:37.085Z,4.80
2018-06-09T20:49:06.851Z,5.70
2018-06-09T20:51:36.993Z,5.90
2018-06-09T20:54:06.507Z,7.27
2018-06-09T20:56:36.366Z,5.63
2018-06-09T20:59:06.004Z,5.80
2018-06-09T21:01:35.345Z,4.80
2018-06-09T21:04:05.190Z,6.90
2018-06-09T21:06:35.309Z,6.13
2018-06-09T21:09:10.422Z,5.80
2018-06-09T21:11:44.732Z,5.97
2018-06-09T21:14:18.365Z,5.87
2018-06-09T21:16:52.997Z,5.40
2018-06-09T21:19:27.603Z,4.63
2018-06-09T21:21:57.525Z,6.10
2018-06-09T21:24:27.615Z,6.50
2018-06-09T21:27:02.807Z,7.50
2018-06-09T21:29:34.263Z,6.80
2018-06-09T21:32:10.280Z,9.33
2018-06-09T21:34:57.087Z,6.83
2018-06-09T21:37:32.053Z,5.83
2018-06-09T21:40:05.285Z,5.60
2018-06-09T21:42:41.207Z,5.43
2018-06-09T21:45:12.174Z,5.43
2018-06-09T21:47:56.180Z,7.23
2018-06-09T21:50:28.704Z,5.57
2018-06-09T21:52:58.621Z,5.47
2018-06-09T21:55:28.275Z,5.83
2018-06-09T21:57:57.848Z,6.93
2018-06-09T22:00:27.957Z,5.77
2018-06-09T22:02:57.971Z,5.93
2018-06-09T22:05:28.346Z,5.80
2018-06-09T22:07:58.432Z,5.73
2018-06-09T22:10:28.249Z,4.90
2018-06-09T22:12:58.134Z,5.33
2018-06-09T22:15:28.471Z,5.10
2018-06-09T22:17:58.304Z,5.10
2018-06-09T22:20:27.912Z,6.17
2018-06-09T22:22:57.783Z,9.63
2018-06-09T22:25:32.992Z,6.10
2018-06-09T22:28:02.919Z,5.80
2018-06-09T22:30:32.667Z,6.63
2018-06-09T22:33:02.238Z,5.77
2018-06-09T22:35:31.884Z,4.60
2018-06-09T22:38:01.324Z,6.23
2018-06-09T22:40:30.909Z,5.10
2018-06-09T22:43:00.574Z,4.93
2018-06-09T22:45:30.480Z,4.73
2018-06-09T22:48:00.473Z,5.13
2018-06-09T22:50:30.701Z,4.20
2018-06-09T22:53:00.256Z,8.07
2018-06-09T22:55:29.749Z,4.70
2018-06-09T22:57:59.385Z,7.70
2018-06-09T23:00:37.912Z,8.13
2018-06-09T23:03:07.522Z,5.53
2018-06-09T23:05:37.013Z,6.77
2018-06-09T23:08:06.827Z,4.60
2018-06-09T23:10:36.269Z,6.70
2018-06-09T23:13:05.893Z,4.90
2018-06-09T23:15:35.561Z,4.57
2018-06-09T23:18:05.099Z,4.53
2018-06-09T23:20:34.678Z,5.30
2018-06-09T23:23:04.229Z,4.90
2018-06-09T23:25:34.144Z,4.70
2018-06-09T23:28:04.381Z,5.13
2018-06-09T23:30:33.995Z,4.47
2018-06-09T23:33:03.643Z,5.63
2018-06-09T23:35:33.102Z,5.50
2018-06-09T23:38:03.222Z,5.33
2018-06-09T23:40:33.054Z,5.80
2018-06-09T23:43:02.504Z,5.47
2018-06-09T23:45:32.015Z,4.83
2018-06-09T23:48:01.718Z,5.20
2018-06-09T23:50:31.259Z,6.30
2018-06-09T23:53:00.811Z,6.37
2018-06-09T23:55:30.336Z,5.13
2018-06-09T23:57:59.904Z,5.70
